Freeport, IL (61032)

8:33 PM CDT on October 24, 2014 (GMT -0500)
MesoWest US-20 near Freeport IL US ILDOT | Change Station
CLOSE
Current Station
Personal Weather Station
Location: Freeport, IL
Elevation: 807 ft
Nearby Weather Stations

Elev 807 ft 42.32 °N, 89.61 °W | Updated 37 minutes ago

Overcast
Overcast
61 °F
Feels Like 61 °F
N
4
Wind Variable Wind from SSW
Gusts 8.0 mph

Today
High -- | Low -- °F
--% Chance of Precip.
Yesterday
High -- | Low -- °F
Precip. -- in
7:21 AM 6:02 PM
New Moon, 1% visible
Pressure 29.96 in
Visibility 10.0 miles
Clouds Overcast 3100 ft
Dew Point 46 °F
Humidity 58%
Rainfall -999.00 in
Snow Depth Not available.
UV 0 out of 12
Pollen 1.40 out of 12
Ozone Good
PM2.5 Good
Flu Activity No Activity
METAR KFEP 250115Z AUTO 22007KT 10SM OVC031 15/08 A2996 RMK AO2 T01530081

More Conditions Fewer Conditions

Pressure 29.96 in
Visibility 10.0 miles
Clouds Overcast 3100 ft
Dew Point 46 °F
Humidity 58%
Rainfall -999.00 in
Snow Depth Not available.
UV 0 out of 12
Pollen 1.40 out of 12
Ozone Good
PM2.5 Good
Flu Activity No Activity
METAR KFEP 250115Z AUTO 22007KT 10SM OVC031 15/08 A2996 RMK AO2 T01530081

More Conditions Fewer Conditions

10-Day Weather Forecast

Almanac

Astronomy

Oct. 24, 2014 Rise Set
Actual Time 7:21 AM CDT 6:02 PM CDT
Civil Twilight 6:53 AM CDT 6:31 PM CDT
Nautical Twilight 6:20 AM CDT 7:04 PM CDT
Astronomical Twilight 5:47 AM CDT 7:36 PM CDT
Moon 8:01 AM CDT (10/24) 6:41 PM CDT (10/24)
Length of Visible Light 11h 38m
Length of Day
10h 40m
Tomorrow will be 2m 38s shorter.
New Moon, 1% of the Moon is Illuminated
Today
New Moon
Oct 30
First Quarter
Nov 6
Full
Nov 14
Last Quarter
Nov 22
New

Today's Extremes

State Highs State Lows

Community

WunderPhotos

Upload Photos

1,764,749 photos uploaded!

WunderBlogs® & News

Nearby

Air Quality

  Air Quality AQ Index Pollutant
Yesterday Good
PM2.5
Yesterday Good
OZONE
Current Good
PM2.5
Current Good
OZONE
Friday Good
PM2.5
Saturday Good
PM2.5
Sunday Good
PM2.5
Monday Good
PM2.5
Tuesday Good
PM2.5
Wednesday Good
PM2.5

Snow Depth

Station Depth Elevation
No new snow has been reported.

Earthquake Activity

City Distance Mag. Time & Date
No recent earthquake activity has been reported nearby.
Minimum magnitude displayed is 2.5.

Coastal Water Temperatures

Place Temperature
No Stations Reporting

Nearby Weather Stations